createdAt,value
2018-08-19T00:00:48.093Z,0
2018-08-19T00:01:56.739Z,0
2018-08-19T00:03:05.386Z,0
2018-08-19T00:04:14.027Z,0
2018-08-19T00:05:22.680Z,0
2018-08-19T00:06:31.582Z,0
2018-08-19T00:07:40.231Z,0
2018-08-19T00:08:49.397Z,0
2018-08-19T00:09:58.044Z,0
2018-08-19T00:11:06.689Z,0
2018-08-19T00:12:15.337Z,0
2018-08-19T00:13:23.989Z,0
2018-08-19T00:14:32.630Z,0
2018-08-19T00:15:41.278Z,0
2018-08-19T00:16:49.920Z,0
2018-08-19T00:17:58.575Z,0
2018-08-19T00:19:07.214Z,0
2018-08-19T00:20:15.863Z,0
2018-08-19T00:21:24.504Z,0
2018-08-19T00:22:33.437Z,0
2018-08-19T00:23:42.067Z,0
2018-08-19T00:24:50.716Z,0
2018-08-19T00:25:59.358Z,0
2018-08-19T00:27:08.276Z,0
2018-08-19T00:28:17.185Z,0
2018-08-19T00:29:25.832Z,0
2018-08-19T00:30:34.736Z,0
2018-08-19T00:31:43.644Z,0
2018-08-19T00:32:52.306Z,0
2018-08-19T00:34:02.118Z,0
2018-08-19T00:35:10.774Z,0
2018-08-19T00:36:19.403Z,0
2018-08-19T00:37:28.057Z,0
2018-08-19T00:38:36.699Z,0
2018-08-19T00:39:45.621Z,0
2018-08-19T00:40:54.260Z,0
2018-08-19T00:42:03.185Z,0
2018-08-19T00:43:11.826Z,0
2018-08-19T00:44:20.474Z,0
2018-08-19T00:45:29.110Z,0
2018-08-19T00:46:37.763Z,0
2018-08-19T00:47:46.415Z,0
2018-08-19T00:48:55.060Z,0
2018-08-19T00:50:03.709Z,0
2018-08-19T00:51:12.348Z,0
2018-08-19T00:52:20.995Z,0
2018-08-19T00:53:29.640Z,0
2018-08-19T00:54:38.294Z,0
2018-08-19T00:55:47.458Z,0
2018-08-19T00:56:56.372Z,0
2018-08-19T00:58:05.013Z,0
2018-08-19T00:59:13.667Z,0
2018-08-19T01:00:22.303Z,0
2018-08-19T01:01:30.953Z,0
2018-08-19T01:02:39.598Z,0
2018-08-19T01:03:48.250Z,0
2018-08-19T01:04:56.894Z,0
2018-08-19T01:06:05.533Z,0
2018-08-19T01:07:14.178Z,0
2018-08-19T01:08:22.820Z,0
2018-08-19T01:09:31.475Z,0
2018-08-19T01:10:40.383Z,0
2018-08-19T01:11:49.033Z,0
2018-08-19T01:12:57.673Z,0
2018-08-19T01:14:06.314Z,0
2018-08-19T01:15:14.968Z,0
2018-08-19T01:16:23.613Z,0
2018-08-19T01:17:32.267Z,0
2018-08-19T01:18:40.902Z,0
2018-08-19T01:19:49.564Z,0
2018-08-19T01:20:58.472Z,0
2018-08-19T01:22:07.128Z,0
2018-08-19T01:23:16.032Z,0
2018-08-19T01:24:24.674Z,0
2018-08-19T01:25:33.581Z,0
2018-08-19T01:26:42.223Z,0
2018-08-19T01:27:50.876Z,0
2018-08-19T01:28:59.516Z,0
2018-08-19T01:30:08.167Z,0
2018-08-19T01:31:16.802Z,0
2018-08-19T01:32:25.455Z,0
2018-08-19T01:33:34.097Z,0
2018-08-19T01:34:42.744Z,0
2018-08-19T01:35:51.380Z,0
2018-08-19T01:37:00.034Z,0
2018-08-19T01:38:08.680Z,0
2018-08-19T01:39:17.328Z,0
2018-08-19T01:40:26.227Z,0
2018-08-19T01:41:34.873Z,0
2018-08-19T01:42:43.522Z,0
2018-08-19T01:43:52.174Z,0
2018-08-19T01:45:00.823Z,0
2018-08-19T01:46:09.465Z,0
2018-08-19T01:47:18.114Z,0
2018-08-19T01:48:27.286Z,0
2018-08-19T01:49:35.939Z,0
2018-08-19T01:50:44.578Z,0
2018-08-19T01:51:53.227Z,0
2018-08-19T01:53:01.872Z,0
2018-08-19T01:54:10.787Z,0
2018-08-19T01:55:19.687Z,0
2018-08-19T01:56:28.333Z,0
2018-08-19T01:57:36.975Z,0
2018-08-19T01:58:45.628Z,0
2018-08-19T01:59:54.266Z,0
2018-08-19T02:01:02.908Z,0
2018-08-19T02:02:11.551Z,0
2018-08-19T02:03:20.191Z,0
2018-08-19T02:04:28.848Z,0
2018-08-19T02:05:37.488Z,0
2018-08-19T02:06:46.140Z,0
2018-08-19T02:07:54.775Z,0
2018-08-19T02:09:03.430Z,0
2018-08-19T02:10:12.071Z,0
2018-08-19T02:11:20.719Z,0
2018-08-19T02:12:29.362Z,0
2018-08-19T02:13:38.011Z,0
2018-08-19T02:14:46.920Z,0
2018-08-19T02:15:55.568Z,0
2018-08-19T02:17:04.207Z,0
2018-08-19T02:18:12.855Z,0
2018-08-19T02:19:21.497Z,0
2018-08-19T02:20:30.190Z,0
2018-08-19T02:21:38.791Z,0
2018-08-19T02:22:47.431Z,0
2018-08-19T02:23:56.077Z,0
2018-08-19T02:25:04.723Z,0
2018-08-19T02:26:13.373Z,0
2018-08-19T02:27:22.013Z,0
2018-08-19T02:28:30.658Z,0
2018-08-19T02:29:39.309Z,0
2018-08-19T02:30:47.959Z,0
2018-08-19T02:31:56.873Z,0
2018-08-19T02:33:05.524Z,0
2018-08-19T02:34:14.175Z,0
2018-08-19T02:35:22.829Z,0
2018-08-19T02:36:31.472Z,0
2018-08-19T02:37:40.120Z,0
2018-08-19T02:38:49.031Z,0
2018-08-19T02:39:57.673Z,0
2018-08-19T02:41:06.325Z,0
2018-08-19T02:42:15.229Z,0
2018-08-19T02:43:23.876Z,0
2018-08-19T02:44:32.517Z,0
2018-08-19T02:45:41.165Z,0
2018-08-19T02:46:49.810Z,0
2018-08-19T02:47:58.457Z,0
2018-08-19T02:49:07.102Z,0
2018-08-19T02:50:15.752Z,0
2018-08-19T02:51:24.395Z,0
2018-08-19T02:52:33.044Z,0
2018-08-19T02:53:41.950Z,0
2018-08-19T02:54:50.600Z,0
2018-08-19T02:55:59.242Z,0
2018-08-19T02:57:07.892Z,0
2018-08-19T02:58:16.541Z,0
2018-08-19T02:59:25.190Z,0
2018-08-19T03:00:33.839Z,0
2018-08-19T03:01:42.484Z,0
2018-08-19T03:02:51.135Z,0
2018-08-19T03:03:59.777Z,0
2018-08-19T03:05:08.420Z,0
2018-08-19T03:06:17.347Z,0
2018-08-19T03:07:25.993Z,0
2018-08-19T03:08:34.896Z,0
2018-08-19T03:09:43.546Z,0
2018-08-19T03:10:52.195Z,0
2018-08-19T03:12:00.834Z,0
2018-08-19T03:13:09.485Z,0
2018-08-19T03:14:18.402Z,0
2018-08-19T03:15:27.050Z,0
2018-08-19T03:16:35.700Z,0
2018-08-19T03:17:44.337Z,0
2018-08-19T03:18:52.989Z,0
2018-08-19T03:20:01.637Z,0
2018-08-19T03:21:10.285Z,0
2018-08-19T03:22:18.921Z,0
2018-08-19T03:23:27.571Z,0
2018-08-19T03:24:36.211Z,0
2018-08-19T03:25:45.140Z,0
2018-08-19T03:26:53.776Z,0
2018-08-19T03:28:02.421Z,0
2018-08-19T03:29:11.063Z,0
2018-08-19T03:30:19.730Z,0
2018-08-19T03:31:28.639Z,0
2018-08-19T03:32:37.283Z,0
2018-08-19T03:33:45.931Z,0
2018-08-19T03:34:54.844Z,0
2018-08-19T03:36:03.496Z,0
2018-08-19T03:37:12.136Z,0
2018-08-19T03:38:20.786Z,0
2018-08-19T03:39:29.424Z,0
2018-08-19T03:40:38.079Z,0
2018-08-19T03:41:46.721Z,0
2018-08-19T03:42:55.896Z,0
2018-08-19T03:44:04.801Z,0
2018-08-19T03:45:13.456Z,0
2018-08-19T03:46:22.098Z,0
2018-08-19T03:47:31.012Z,0
2018-08-19T03:48:39.649Z,0
2018-08-19T03:49:48.567Z,4
2018-08-19T03:50:57.215Z,4
2018-08-19T03:52:05.863Z,4
2018-08-19T03:53:14.510Z,0
2018-08-19T03:54:23.148Z,4
2018-08-19T03:55:31.796Z,4
2018-08-19T03:56:40.442Z,4
2018-08-19T03:57:49.101Z,8
2018-08-19T03:58:57.746Z,8
2018-08-19T04:00:06.399Z,8
2018-08-19T04:01:15.302Z,12
2018-08-19T04:02:23.957Z,12
2018-08-19T04:03:32.881Z,16
2018-08-19T04:04:41.528Z,16
2018-08-19T04:05:50.169Z,20
2018-08-19T04:06:58.820Z,24
2018-08-19T04:08:07.463Z,24
2018-08-19T04:09:16.103Z,32
2018-08-19T04:10:24.750Z,36
2018-08-19T04:11:33.393Z,40
2018-08-19T04:12:42.042Z,44
2018-08-19T04:13:50.687Z,48
2018-08-19T04:14:59.600Z,56
2018-08-19T04:16:08.786Z,60
2018-08-19T04:17:17.700Z,68
2018-08-19T04:18:26.611Z,76
2018-08-19T04:19:35.522Z,80
2018-08-19T04:20:44.162Z,88
2018-08-19T04:21:52.810Z,100
2018-08-19T04:23:01.716Z,108
2018-08-19T04:24:10.364Z,116
2018-08-19T04:25:19.006Z,132
2018-08-19T04:26:27.654Z,140
2018-08-19T04:27:36.302Z,152
2018-08-19T04:28:44.949Z,164
2018-08-19T04:29:53.593Z,184
2018-08-19T04:31:02.229Z,196
2018-08-19T04:32:10.880Z,216
2018-08-19T04:33:19.522Z,228
2018-08-19T04:34:28.437Z,248
2018-08-19T04:35:37.338Z,268
2018-08-19T04:36:45.984Z,288
2018-08-19T04:37:54.895Z,308
2018-08-19T04:39:03.547Z,328
2018-08-19T04:40:12.189Z,356
2018-08-19T04:41:20.842Z,376
2018-08-19T04:42:29.488Z,400
2018-08-19T04:43:38.138Z,428
2018-08-19T04:44:46.781Z,452
2018-08-19T04:45:55.428Z,480
2018-08-19T04:47:04.077Z,508
2018-08-19T04:48:12.719Z,536
2018-08-19T04:49:21.369Z,572
2018-08-19T04:50:30.018Z,608
2018-08-19T04:51:38.929Z,640
2018-08-19T04:52:47.829Z,676
2018-08-19T04:53:56.744Z,712
2018-08-19T04:55:05.391Z,756
2018-08-19T04:56:14.036Z,792
2018-08-19T04:57:22.952Z,824
2018-08-19T04:58:31.601Z,852
2018-08-19T04:59:40.246Z,884
2018-08-19T05:00:48.892Z,920
2018-08-19T05:01:57.562Z,960
2018-08-19T05:03:06.182Z,996
2018-08-19T05:04:14.827Z,1032
2018-08-19T05:05:23.474Z,1076
2018-08-19T05:06:32.132Z,1112
2018-08-19T05:07:40.770Z,1152
2018-08-19T05:08:49.684Z,1192
2018-08-19T05:09:58.329Z,1228
2018-08-19T05:11:06.970Z,1268
2018-08-19T05:12:15.893Z,1296
2018-08-19T05:13:24.531Z,1336
2018-08-19T05:14:33.179Z,1376
2018-08-19T05:15:41.818Z,1408
2018-08-19T05:16:50.471Z,1444
2018-08-19T05:17:59.112Z,1476
2018-08-19T05:19:07.757Z,1508
2018-08-19T05:20:16.407Z,1544
2018-08-19T05:21:25.313Z,1572
2018-08-19T05:22:34.004Z,1604
2018-08-19T05:23:42.620Z,1648
2018-08-19T05:24:51.266Z,1692
2018-08-19T05:25:59.915Z,1748
2018-08-19T05:27:08.551Z,1808
2018-08-19T05:28:17.218Z,1864
2018-08-19T05:29:26.111Z,1932
2018-08-19T05:30:34.754Z,2008
2018-08-19T05:31:43.861Z,2100
2018-08-19T05:32:52.509Z,2208
2018-08-19T05:34:01.408Z,2308
2018-08-19T05:35:10.049Z,2308
2018-08-19T05:36:18.702Z,2284
2018-08-19T05:37:27.347Z,2208
2018-08-19T05:38:36.265Z,2144
2018-08-19T05:39:44.909Z,2072
2018-08-19T05:40:53.555Z,1952
2018-08-19T05:42:02.200Z,1900
2018-08-19T05:43:11.103Z,1916
2018-08-19T05:44:19.754Z,1936
2018-08-19T05:45:28.397Z,1904
2018-08-19T05:46:37.044Z,1944
2018-08-19T05:47:45.684Z,1928
2018-08-19T05:48:54.335Z,1872
2018-08-19T05:50:02.981Z,1920
2018-08-19T05:51:11.888Z,2036
2018-08-19T05:52:20.530Z,2172
2018-08-19T05:53:29.179Z,2264
2018-08-19T05:54:38.084Z,2340
2018-08-19T05:55:46.736Z,2424
2018-08-19T05:56:55.380Z,2544
2018-08-19T05:58:04.024Z,2624
2018-08-19T05:59:12.668Z,2636
2018-08-19T06:00:21.587Z,2616
2018-08-19T06:01:30.239Z,2624
2018-08-19T06:02:39.149Z,2688
2018-08-19T06:03:47.794Z,2708
2018-08-19T06:04:56.439Z,2764
2018-08-19T06:06:05.089Z,2824
2018-08-19T06:07:13.729Z,3012
2018-08-19T06:08:22.379Z,2984
2018-08-19T06:09:31.021Z,2972
2018-08-19T06:10:39.942Z,3116
2018-08-19T06:11:48.577Z,3076
2018-08-19T06:12:57.226Z,2968
2018-08-19T06:14:05.873Z,2996
2018-08-19T06:15:14.529Z,3112
2018-08-19T06:16:23.171Z,3156
2018-08-19T06:17:31.814Z,3308
2018-08-19T06:18:40.459Z,3216
2018-08-19T06:19:49.104Z,3056
2018-08-19T06:20:57.759Z,2836
2018-08-19T06:22:06.531Z,2744
2018-08-19T06:23:15.329Z,2836
2018-08-19T06:24:23.965Z,2684
2018-08-19T06:25:32.620Z,2704
2018-08-19T06:26:41.262Z,2776
2018-08-19T06:27:49.915Z,2724
2018-08-19T06:28:58.551Z,2728
2018-08-19T06:30:07.209Z,2772
2018-08-19T06:31:15.890Z,2764
2018-08-19T06:32:24.502Z,2764
2018-08-19T06:33:33.136Z,2776
2018-08-19T06:34:41.919Z,2780
2018-08-19T06:35:50.436Z,2788
2018-08-19T06:36:59.080Z,2788
2018-08-19T06:38:07.731Z,2760
2018-08-19T06:39:16.369Z,2792
2018-08-19T06:40:25.288Z,2896
2018-08-19T06:41:33.932Z,2940
2018-08-19T06:42:42.588Z,2988
2018-08-19T06:43:51.224Z,3016
2018-08-19T06:44:59.877Z,2980
2018-08-19T06:46:08.779Z,3012
2018-08-19T06:47:17.437Z,3036
2018-08-19T06:48:26.074Z,3052
2018-08-19T06:49:34.996Z,3192
2018-08-19T06:50:43.645Z,3348
2018-08-19T06:51:52.299Z,3224
2018-08-19T06:53:00.943Z,3032
2018-08-19T06:54:09.589Z,2940
2018-08-19T06:55:18.234Z,2940
2018-08-19T06:56:26.879Z,2916
2018-08-19T06:57:35.797Z,2896
2018-08-19T06:58:44.703Z,2884
2018-08-19T06:59:53.626Z,2888
2018-08-19T07:01:02.264Z,2880
2018-08-19T07:02:10.921Z,2864
2018-08-19T07:03:19.658Z,2868
2018-08-19T07:04:28.217Z,2872
2018-08-19T07:05:36.856Z,2872
2018-08-19T07:06:45.505Z,2892
2018-08-19T07:07:54.147Z,2912
2018-08-19T07:09:02.794Z,2932
2018-08-19T07:10:11.440Z,2936
2018-08-19T07:11:20.087Z,2964
2018-08-19T07:12:28.736Z,2968
2018-08-19T07:13:37.683Z,2968
2018-08-19T07:14:46.332Z,2960
2018-08-19T07:15:54.975Z,2956
2018-08-19T07:17:03.623Z,2956
2018-08-19T07:18:12.535Z,2968
2018-08-19T07:19:21.189Z,2960
2018-08-19T07:20:29.835Z,2952
2018-08-19T07:21:38.479Z,2936
2018-08-19T07:22:47.127Z,2924
2018-08-19T07:23:55.845Z,2904
2018-08-19T07:25:04.422Z,2916
2018-08-19T07:26:13.070Z,2920
2018-08-19T07:27:21.714Z,2904
2018-08-19T07:28:30.367Z,2912
2018-08-19T07:29:39.024Z,2896
2018-08-19T07:30:48.036Z,2908
2018-08-19T07:31:56.681Z,2892
2018-08-19T07:33:05.597Z,2896
2018-08-19T07:34:14.247Z,2884
2018-08-19T07:35:22.894Z,2888
2018-08-19T07:36:31.541Z,2872
2018-08-19T07:37:40.184Z,2856
2018-08-19T07:38:49.106Z,2844
2018-08-19T07:39:57.757Z,2824
2018-08-19T07:41:06.407Z,2792
2018-08-19T07:42:15.050Z,2772
2018-08-19T07:43:23.700Z,2756
2018-08-19T07:44:32.351Z,2740
2018-08-19T07:45:40.999Z,2720
2018-08-19T07:46:49.642Z,2692
2018-08-19T07:47:58.290Z,2712
2018-08-19T07:49:06.937Z,2704
2018-08-19T07:50:15.586Z,2684
2018-08-19T07:51:24.235Z,2704
2018-08-19T07:52:33.137Z,2704
2018-08-19T07:53:41.786Z,2700
2018-08-19T07:54:50.428Z,2692
2018-08-19T07:55:59.081Z,2668
2018-08-19T07:57:07.723Z,2672
2018-08-19T07:58:16.370Z,2672
2018-08-19T07:59:25.019Z,2644
2018-08-19T08:00:33.669Z,2644
2018-08-19T08:01:42.322Z,2632
2018-08-19T08:02:50.966Z,2632
2018-08-19T08:03:59.609Z,2628
2018-08-19T08:05:08.527Z,2600
2018-08-19T08:06:17.176Z,2608
2018-08-19T08:07:26.081Z,2628
2018-08-19T08:08:34.726Z,2680
2018-08-19T08:09:43.642Z,2744
2018-08-19T08:10:52.328Z,2772
2018-08-19T08:12:00.943Z,2792
2018-08-19T08:13:09.594Z,2820
2018-08-19T08:14:18.235Z,2880
2018-08-19T08:15:26.892Z,2652
2018-08-19T08:16:35.537Z,3020
2018-08-19T08:17:44.188Z,3352
2018-08-19T08:18:52.835Z,3392
2018-08-19T08:20:01.491Z,3272
2018-08-19T08:21:10.231Z,3188
2018-08-19T08:22:18.789Z,3292
2018-08-19T08:23:27.468Z,4048
2018-08-19T08:24:36.078Z,3268
2018-08-19T08:25:44.730Z,3492
2018-08-19T08:26:53.380Z,3316
2018-08-19T08:28:02.030Z,3212
2018-08-19T08:29:10.695Z,2500
2018-08-19T08:30:19.321Z,2548
2018-08-19T08:31:27.965Z,3480
2018-08-19T08:32:36.622Z,3488
2018-08-19T08:33:45.261Z,3336
2018-08-19T08:34:53.914Z,2576
2018-08-19T08:36:02.830Z,2768
2018-08-19T08:37:11.487Z,2844
2018-08-19T08:38:20.124Z,3592
2018-08-19T08:39:29.332Z,3512
2018-08-19T08:40:38.258Z,3592
2018-08-19T08:41:47.231Z,3940
2018-08-19T08:42:56.146Z,5136
2018-08-19T08:44:04.788Z,4876
2018-08-19T08:45:13.433Z,5072
2018-08-19T08:46:22.080Z,5292
2018-08-19T08:47:30.825Z,5332
2018-08-19T08:48:39.382Z,6060
2018-08-19T08:49:48.036Z,5604
2018-08-19T08:50:56.949Z,4664
2018-08-19T08:52:05.604Z,4424
2018-08-19T08:53:14.297Z,4648
2018-08-19T08:54:22.904Z,4792
2018-08-19T08:55:31.808Z,4972
2018-08-19T08:56:40.467Z,4580
2018-08-19T08:57:49.114Z,4372
2018-08-19T08:58:57.766Z,4220
2018-08-19T09:00:06.668Z,4200
2018-08-19T09:01:15.320Z,5192
2018-08-19T09:02:24.242Z,5012
2018-08-19T09:03:32.885Z,5052
2018-08-19T09:04:41.532Z,5204
2018-08-19T09:05:50.198Z,5644
2018-08-19T09:06:59.111Z,5684
2018-08-19T09:08:07.763Z,5564
2018-08-19T09:09:16.399Z,5440
2018-08-19T09:10:25.056Z,5552
2018-08-19T09:11:33.701Z,5916
2018-08-19T09:12:42.622Z,6020
2018-08-19T09:13:51.861Z,5908
2018-08-19T09:15:00.518Z,5404
2018-08-19T09:16:09.422Z,4996
2018-08-19T09:17:18.074Z,4532
2018-08-19T09:18:26.717Z,4340
2018-08-19T09:19:35.364Z,4908
2018-08-19T09:20:44.017Z,5540
2018-08-19T09:21:52.678Z,5592
2018-08-19T09:23:01.400Z,5480
2018-08-19T09:24:09.963Z,5148
2018-08-19T09:25:18.625Z,4616
2018-08-19T09:26:27.268Z,3728
2018-08-19T09:27:35.928Z,3572
2018-08-19T09:28:44.833Z,3412
2018-08-19T09:29:53.487Z,4016
2018-08-19T09:31:02.133Z,4060
2018-08-19T09:32:10.792Z,3544
2018-08-19T09:33:19.432Z,3744
2018-08-19T09:34:28.083Z,3844
2018-08-19T09:35:36.730Z,3996
2018-08-19T09:36:45.656Z,4076
2018-08-19T09:37:54.310Z,3916
2018-08-19T09:39:02.955Z,3792
2018-08-19T09:40:11.865Z,3692
2018-08-19T09:41:20.513Z,3860
2018-08-19T09:42:29.173Z,4180
2018-08-19T09:43:38.079Z,4124
2018-08-19T09:44:46.731Z,3840
2018-08-19T09:45:55.640Z,3840
2018-08-19T09:47:04.299Z,4040
2018-08-19T09:48:12.951Z,4424
2018-08-19T09:49:21.868Z,4596
2018-08-19T09:50:30.509Z,4292
2018-08-19T09:51:39.169Z,3156
2018-08-19T09:52:47.817Z,3108
2018-08-19T09:53:56.471Z,3492
2018-08-19T09:55:05.113Z,2824
2018-08-19T09:56:13.763Z,2556
2018-08-19T09:57:22.419Z,2608
2018-08-19T09:58:31.331Z,3512
2018-08-19T09:59:39.983Z,3496
2018-08-19T10:00:48.619Z,3324
2018-08-19T10:01:57.269Z,3480
2018-08-19T10:03:05.918Z,3464
2018-08-19T10:04:14.572Z,3468
2018-08-19T10:05:23.217Z,3460
2018-08-19T10:06:31.868Z,3464
2018-08-19T10:07:40.542Z,3460
2018-08-19T10:08:49.440Z,3496
2018-08-19T10:09:58.085Z,3524
2018-08-19T10:11:06.741Z,3592
2018-08-19T10:12:15.657Z,3544
2018-08-19T10:13:24.574Z,3472
2018-08-19T10:14:33.229Z,3384
2018-08-19T10:15:41.873Z,3356
2018-08-19T10:16:50.520Z,3280
2018-08-19T10:17:59.165Z,3400
2018-08-19T10:19:08.085Z,3396
2018-08-19T10:20:17.012Z,3464
2018-08-19T10:21:25.663Z,3448
2018-08-19T10:22:34.307Z,3608
2018-08-19T10:23:42.960Z,3512
2018-08-19T10:24:51.610Z,3432
2018-08-19T10:26:00.263Z,3384
2018-08-19T10:27:08.915Z,3388
2018-08-19T10:28:17.569Z,3404
2018-08-19T10:29:26.216Z,3504
2018-08-19T10:30:35.400Z,3460
2018-08-19T10:31:44.310Z,3548
2018-08-19T10:32:52.962Z,3072
2018-08-19T10:34:02.715Z,3652
2018-08-19T10:35:11.367Z,3552
2018-08-19T10:36:20.027Z,3420
2018-08-19T10:37:28.669Z,2760
2018-08-19T10:38:37.327Z,3472
2018-08-19T10:39:45.978Z,3552
2018-08-19T10:40:54.651Z,3664
2018-08-19T10:42:03.282Z,3764
2018-08-19T10:43:11.930Z,3716
2018-08-19T10:44:20.578Z,3672
2018-08-19T10:45:29.235Z,3724
2018-08-19T10:46:37.878Z,3816
2018-08-19T10:47:46.532Z,3804
2018-08-19T10:48:55.445Z,3652
2018-08-19T10:50:04.100Z,3736
2018-08-19T10:51:12.749Z,3320
2018-08-19T10:52:21.402Z,3528
2018-08-19T10:53:30.826Z,3012
2018-08-19T10:54:39.440Z,3472
2018-08-19T10:55:48.095Z,3568
2018-08-19T10:56:56.742Z,3552
2018-08-19T10:58:05.393Z,3628
2018-08-19T10:59:14.039Z,3564
2018-08-19T11:00:22.687Z,3476
2018-08-19T11:01:31.344Z,3568
2018-08-19T11:02:39.987Z,3604
2018-08-19T11:03:48.647Z,3648
2018-08-19T11:04:57.289Z,3664
2018-08-19T11:06:05.942Z,3624
2018-08-19T11:07:14.851Z,3668
2018-08-19T11:08:23.510Z,3692
2018-08-19T11:09:32.426Z,3752
2018-08-19T11:10:41.073Z,3748
2018-08-19T11:11:49.722Z,3836
2018-08-19T11:12:58.631Z,3744
2018-08-19T11:14:07.553Z,3684
2018-08-19T11:15:16.199Z,3656
2018-08-19T11:16:24.853Z,3616
2018-08-19T11:17:33.497Z,3616
2018-08-19T11:18:42.429Z,3664
2018-08-19T11:19:51.079Z,3684
2018-08-19T11:21:00.115Z,3680
2018-08-19T11:22:08.933Z,3608
2018-08-19T11:23:17.590Z,3660
2018-08-19T11:24:26.240Z,3672
2018-08-19T11:25:34.894Z,3504
2018-08-19T11:26:43.535Z,3608
2018-08-19T11:27:52.188Z,3596
2018-08-19T11:29:00.843Z,3540
2018-08-19T11:30:09.765Z,3580
2018-08-19T11:31:19.053Z,3528
2018-08-19T11:32:27.999Z,3496
2018-08-19T11:33:36.658Z,3536
2018-08-19T11:34:45.305Z,3528
2018-08-19T11:35:53.965Z,3596
2018-08-19T11:37:02.608Z,3564
2018-08-19T11:38:11.265Z,3752
2018-08-19T11:39:19.910Z,3728
2018-08-19T11:40:28.571Z,3672
2018-08-19T11:41:37.215Z,3580
2018-08-19T11:42:45.869Z,3452
2018-08-19T11:43:54.518Z,3512
2018-08-19T11:45:03.177Z,3632
2018-08-19T11:46:12.095Z,3584
2018-08-19T11:47:20.742Z,3420
2018-08-19T11:48:29.390Z,3548
2018-08-19T11:49:38.040Z,3500
2018-08-19T11:50:46.699Z,3504
2018-08-19T11:51:55.342Z,3584
2018-08-19T11:53:04.000Z,3484
2018-08-19T11:54:12.643Z,3576
2018-08-19T11:55:21.347Z,3520
2018-08-19T11:56:29.948Z,3464
2018-08-19T11:57:38.605Z,3556
2018-08-19T11:58:47.249Z,3532
2018-08-19T11:59:55.905Z,3548
2018-08-19T12:01:04.570Z,3612
2018-08-19T12:02:13.394Z,3588
2018-08-19T12:03:21.856Z,3576
2018-08-19T12:04:30.507Z,3556
2018-08-19T12:05:39.157Z,3536
2018-08-19T12:06:47.812Z,3572
2018-08-19T12:07:56.467Z,3556
2018-08-19T12:09:05.377Z,3556
2018-08-19T12:10:14.025Z,3516
2018-08-19T12:11:22.670Z,3528
2018-08-19T12:12:31.329Z,3468
2018-08-19T12:13:39.975Z,3488
2018-08-19T12:14:48.625Z,3468
2018-08-19T12:15:57.276Z,3404
2018-08-19T12:17:07.178Z,3440
2018-08-19T12:18:15.740Z,3404
2018-08-19T12:19:24.398Z,3376
2018-08-19T12:20:33.318Z,3400
2018-08-19T12:21:41.977Z,3364
2018-08-19T12:22:50.624Z,3384
2018-08-19T12:23:59.275Z,3364
2018-08-19T12:25:07.924Z,3352
2018-08-19T12:26:16.579Z,3324
2018-08-19T12:27:25.939Z,3344
2018-08-19T12:28:34.530Z,3324
2018-08-19T12:29:43.183Z,3320
2018-08-19T12:30:52.090Z,3340
2018-08-19T12:32:00.741Z,3344
2018-08-19T12:33:09.392Z,3304
2018-08-19T12:34:18.044Z,3312
2018-08-19T12:35:26.964Z,3316
2018-08-19T12:36:35.614Z,3292
2018-08-19T12:37:44.262Z,3316
2018-08-19T12:38:53.178Z,3296
2018-08-19T12:40:01.833Z,3280
2018-08-19T12:41:10.481Z,3308
2018-08-19T12:42:19.133Z,3276
2018-08-19T12:43:27.784Z,3264
2018-08-19T12:44:36.455Z,3292
2018-08-19T12:45:45.085Z,3260
2018-08-19T12:46:53.736Z,3268
2018-08-19T12:48:02.389Z,3260
2018-08-19T12:49:11.308Z,3272
2018-08-19T12:50:20.386Z,3296
2018-08-19T12:51:29.419Z,3344
2018-08-19T12:52:37.981Z,3276
2018-08-19T12:53:46.638Z,3316
2018-08-19T12:54:55.859Z,3356
2018-08-19T12:56:04.470Z,3312
2018-08-19T12:57:13.122Z,3352
2018-08-19T12:58:21.768Z,3312
2018-08-19T12:59:30.423Z,3332
2018-08-19T13:00:39.078Z,3328
2018-08-19T13:01:47.742Z,3312
2018-08-19T13:02:56.655Z,3320
2018-08-19T13:04:05.834Z,3316
2018-08-19T13:05:14.486Z,3380
2018-08-19T13:06:23.407Z,3380
2018-08-19T13:07:32.068Z,3328
2018-08-19T13:08:40.714Z,3324
2018-08-19T13:09:49.367Z,3324
2018-08-19T13:10:58.019Z,3312
2018-08-19T13:12:06.674Z,3288
2018-08-19T13:13:15.320Z,3308
2018-08-19T13:14:24.238Z,3288
2018-08-19T13:15:32.887Z,3300
2018-08-19T13:16:41.807Z,3300
2018-08-19T13:17:50.456Z,3348
2018-08-19T13:18:59.109Z,3336
2018-08-19T13:20:07.756Z,3300
2018-08-19T13:21:16.411Z,3268
2018-08-19T13:22:25.065Z,3296
2018-08-19T13:23:33.988Z,3316
2018-08-19T13:24:42.639Z,3348
2018-08-19T13:25:51.549Z,3308
2018-08-19T13:27:00.204Z,3276
2018-08-19T13:28:08.858Z,3288
2018-08-19T13:29:17.512Z,3264
2018-08-19T13:30:26.161Z,3264
2018-08-19T13:31:34.819Z,3252
2018-08-19T13:32:43.468Z,3204
2018-08-19T13:33:52.122Z,3204
2018-08-19T13:35:00.769Z,3196
2018-08-19T13:36:09.691Z,3172
2018-08-19T13:37:18.331Z,3176
2018-08-19T13:38:26.983Z,3156
2018-08-19T13:39:35.638Z,3264
2018-08-19T13:40:44.287Z,3240
2018-08-19T13:41:52.938Z,3208
2018-08-19T13:43:01.589Z,3200
2018-08-19T13:44:10.247Z,3180
2018-08-19T13:45:18.907Z,3212
2018-08-19T13:46:27.544Z,3104
2018-08-19T13:47:36.195Z,3092
2018-08-19T13:48:44.853Z,3136
2018-08-19T13:49:53.499Z,3072
2018-08-19T13:51:02.424Z,3060
2018-08-19T13:52:11.073Z,3036
2018-08-19T13:53:19.729Z,3012
2018-08-19T13:54:28.642Z,3052
2018-08-19T13:55:37.561Z,2980
2018-08-19T13:56:46.208Z,2924
2018-08-19T13:57:54.857Z,2916
2018-08-19T13:59:03.517Z,2876
2018-08-19T14:00:12.172Z,2832
2018-08-19T14:01:21.084Z,2824
2018-08-19T14:02:29.724Z,2852
2018-08-19T14:03:38.387Z,2828
2018-08-19T14:04:47.031Z,2860
2018-08-19T14:05:55.687Z,2780
2018-08-19T14:07:04.592Z,2760
2018-08-19T14:08:13.255Z,2732
2018-08-19T14:09:22.160Z,2728
2018-08-19T14:10:30.812Z,2708
2018-08-19T14:11:39.464Z,2704
2018-08-19T14:12:48.111Z,2692
2018-08-19T14:13:57.032Z,2676
2018-08-19T14:15:05.686Z,2684
2018-08-19T14:16:14.343Z,2660
2018-08-19T14:17:22.986Z,2652
2018-08-19T14:18:31.641Z,2636
2018-08-19T14:19:40.287Z,2620
2018-08-19T14:20:48.949Z,2592
2018-08-19T14:21:57.590Z,2568
2018-08-19T14:23:06.247Z,2560
2018-08-19T14:24:14.897Z,2572
2018-08-19T14:25:23.557Z,2568
2018-08-19T14:26:32.200Z,2548
2018-08-19T14:27:40.855Z,2540
2018-08-19T14:28:49.766Z,2544
2018-08-19T14:29:58.532Z,2532
2018-08-19T14:31:07.343Z,2560
2018-08-19T14:32:15.990Z,2508
2018-08-19T14:33:24.640Z,2504
2018-08-19T14:34:33.289Z,2468
2018-08-19T14:35:41.949Z,2444
2018-08-19T14:36:50.595Z,2440
2018-08-19T14:37:59.518Z,2476
2018-08-19T14:39:08.166Z,2452
2018-08-19T14:40:17.101Z,2424
2018-08-19T14:41:25.479Z,2424
2018-08-19T14:42:34.133Z,2428
2018-08-19T14:43:42.771Z,2420
2018-08-19T14:44:51.430Z,2400
2018-08-19T14:46:00.085Z,2412
2018-08-19T14:47:08.735Z,2352
2018-08-19T14:48:17.377Z,2372
2018-08-19T14:49:26.036Z,2388
2018-08-19T14:50:34.696Z,2356
2018-08-19T14:51:43.344Z,2348
2018-08-19T14:52:51.998Z,2340
2018-08-19T14:54:00.642Z,2320
2018-08-19T14:55:09.300Z,2304
2018-08-19T14:56:17.952Z,2292
2018-08-19T14:57:26.609Z,2300
2018-08-19T14:58:35.258Z,2272
2018-08-19T14:59:43.916Z,2268
2018-08-19T15:00:52.829Z,2252
2018-08-19T15:02:01.486Z,2240
2018-08-19T15:03:10.396Z,2224
2018-08-19T15:04:19.048Z,2208
2018-08-19T15:05:27.962Z,2200
2018-08-19T15:06:37.143Z,2200
2018-08-19T15:07:45.791Z,2172
2018-08-19T15:08:54.442Z,2152
2018-08-19T15:10:03.503Z,2156
2018-08-19T15:11:12.109Z,2128
2018-08-19T15:12:20.764Z,2124
2018-08-19T15:13:29.417Z,2120
2018-08-19T15:14:38.335Z,2120
2018-08-19T15:15:46.980Z,2116
2018-08-19T15:16:55.636Z,2108
2018-08-19T15:18:04.292Z,2100
2018-08-19T15:19:13.212Z,2116
2018-08-19T15:20:21.859Z,2096
2018-08-19T15:21:30.520Z,2084
2018-08-19T15:22:39.167Z,2076
2018-08-19T15:23:47.823Z,2036
2018-08-19T15:24:56.474Z,2028
2018-08-19T15:26:05.128Z,2020
2018-08-19T15:27:13.780Z,2016
2018-08-19T15:28:22.433Z,2028
2018-08-19T15:29:31.085Z,2008
2018-08-19T15:30:39.733Z,2028
2018-08-19T15:31:48.514Z,2032
2018-08-19T15:32:57.445Z,1988
2018-08-19T15:34:07.263Z,1976
2018-08-19T15:35:15.915Z,1972
2018-08-19T15:36:24.832Z,1972
2018-08-19T15:37:33.479Z,1996
2018-08-19T15:38:42.135Z,1996
2018-08-19T15:39:50.783Z,1996
2018-08-19T15:40:59.781Z,1972